sensor_id;sensor_type;location;lat;lon;timestamp;pressure;altitude;pressure_sealevel;temperature;humidity
11987;BME280;6053;51.382;6.768;2023-05-24T00:02:00;102020.47;;;13.20;68.50
11987;BME280;6053;51.382;6.768;2023-05-24T00:04:33;102028.69;;;13.47;69.91
11987;BME280;6053;51.382;6.768;2023-05-24T00:07:02;102017.66;;;12.55;72.15
11987;BME280;6053;51.382;6.768;2023-05-24T00:09:32;102023.88;;;11.56;82.05
11987;BME280;6053;51.382;6.768;2023-05-24T00:12:03;102027.63;;;12.16;76.24
11987;BME280;6053;51.382;6.768;2023-05-24T00:14:33;102021.50;;;12.41;78.87
11987;BME280;6053;51.382;6.768;2023-05-24T00:17:02;102020.84;;;12.52;73.28
11987;BME280;6053;51.382;6.768;2023-05-24T00:19:33;102015.13;;;11.46;80.53
11987;BME280;6053;51.382;6.768;2023-05-24T00:22:05;102012.16;;;13.72;75.67
11987;BME280;6053;51.382;6.768;2023-05-24T00:24:35;102013.81;;;13.79;68.67
11987;BME280;6053;51.382;6.768;2023-05-24T00:27:06;102010.13;;;14.17;73.33
11987;BME280;6053;51.382;6.768;2023-05-24T00:29:36;102011.50;;;13.76;68.05
11987;BME280;6053;51.382;6.768;2023-05-24T00:32:06;102011.47;;;13.38;72.91
11987;BME280;6053;51.382;6.768;2023-05-24T00:34:39;102014.66;;;12.17;76.22
11987;BME280;6053;51.382;6.768;2023-05-24T00:37:09;102002.75;;;12.49;76.07
11987;BME280;6053;51.382;6.768;2023-05-24T00:39:39;102005.53;;;13.73;75.28
11987;BME280;6053;51.382;6.768;2023-05-24T00:42:09;102001.81;;;14.17;73.39
11987;BME280;6053;51.382;6.768;2023-05-24T00:44:42;102003.59;;;14.98;69.32
11987;BME280;6053;51.382;6.768;2023-05-24T00:47:10;102004.97;;;14.52;70.96
11987;BME280;6053;51.382;6.768;2023-05-24T00:49:41;101998.00;;;15.53;66.73
11987;BME280;6053;51.382;6.768;2023-05-24T00:52:10;102000.66;;;15.78;65.00
11987;BME280;6053;51.382;6.768;2023-05-24T00:54:40;101989.22;;;15.87;65.22
11987;BME280;6053;51.382;6.768;2023-05-24T00:57:11;101990.34;;;16.09;64.55
11987;BME280;6053;51.382;6.768;2023-05-24T00:59:41;101992.44;;;16.14;64.10
11987;BME280;6053;51.382;6.768;2023-05-24T01:02:11;101981.34;;;15.84;65.24
11987;BME280;6053;51.382;6.768;2023-05-24T01:04:42;101989.25;;;15.98;64.70
11987;BME280;6053;51.382;6.768;2023-05-24T01:07:17;101989.41;;;16.15;63.87
11987;BME280;6053;51.382;6.768;2023-05-24T01:09:58;101990.13;;;16.11;63.62
11987;BME280;6053;51.382;6.768;2023-05-24T01:12:39;101992.91;;;16.11;63.84
11987;BME280;6053;51.382;6.768;2023-05-24T01:15:20;101994.59;;;16.12;63.98
11987;BME280;6053;51.382;6.768;2023-05-24T01:17:56;101993.03;;;16.16;64.08
11987;BME280;6053;51.382;6.768;2023-05-24T01:20:32;101985.03;;;16.19;63.67
11987;BME280;6053;51.382;6.768;2023-05-24T01:23:17;101999.16;;;16.06;64.16
11987;BME280;6053;51.382;6.768;2023-05-24T01:26:19;101994.00;;;16.10;64.19
11987;BME280;6053;51.382;6.768;2023-05-24T01:28:51;101983.09;;;16.08;64.21
11987;BME280;6053;51.382;6.768;2023-05-24T01:31:21;101983.09;;;16.08;64.29
11987;BME280;6053;51.382;6.768;2023-05-24T01:33:52;101982.34;;;16.13;64.20
11987;BME280;6053;51.382;6.768;2023-05-24T01:36:21;101985.03;;;16.08;64.39
11987;BME280;6053;51.382;6.768;2023-05-24T01:38:51;101975.84;;;16.07;64.42
11987;BME280;6053;51.382;6.768;2023-05-24T01:41:30;101975.22;;;16.05;64.51
11987;BME280;6053;51.382;6.768;2023-05-24T01:44:10;101969.53;;;16.00;64.58
11987;BME280;6053;51.382;6.768;2023-05-24T01:46:41;101971.44;;;15.99;64.80
11987;BME280;6053;51.382;6.768;2023-05-24T01:49:20;101971.84;;;16.03;64.82
11987;BME280;6053;51.382;6.768;2023-05-24T01:51:57;101965.28;;;15.97;64.87
11987;BME280;6053;51.382;6.768;2023-05-24T01:54:31;101982.97;;;16.03;64.88
11987;BME280;6053;51.382;6.768;2023-05-24T01:57:06;101980.16;;;15.91;65.18
11987;BME280;6053;51.382;6.768;2023-05-24T01:59:42;101976.16;;;15.99;65.07
11987;BME280;6053;51.382;6.768;2023-05-24T02:02:12;101964.19;;;15.87;65.17
11987;BME280;6053;51.382;6.768;2023-05-24T02:04:42;101966.34;;;15.85;65.37
11987;BME280;6053;51.382;6.768;2023-05-24T02:07:12;101954.72;;;15.88;65.30
11987;BME280;6053;51.382;6.768;2023-05-24T02:09:41;101964.03;;;15.82;65.56
11987;BME280;6053;51.382;6.768;2023-05-24T02:12:11;101958.72;;;15.80;65.75
11987;BME280;6053;51.382;6.768;2023-05-24T02:14:42;101956.63;;;15.75;65.71
11987;BME280;6053;51.382;6.768;2023-05-24T02:17:11;101953.75;;;15.82;65.73
11987;BME280;6053;51.382;6.768;2023-05-24T02:19:44;101958.34;;;15.76;65.84
11987;BME280;6053;51.382;6.768;2023-05-24T02:22:13;101952.78;;;15.76;65.99
11987;BME280;6053;51.382;6.768;2023-05-24T02:24:44;101955.41;;;15.71;66.05
11987;BME280;6053;51.382;6.768;2023-05-24T02:27:15;101961.69;;;15.67;66.17
11987;BME280;6053;51.382;6.768;2023-05-24T02:29:48;101963.63;;;15.66;66.45
11987;BME280;6053;51.382;6.768;2023-05-24T02:32:17;101954.63;;;15.64;66.46
11987;BME280;6053;51.382;6.768;2023-05-24T02:34:46;101959.56;;;15.62;66.46
11987;BME280;6053;51.382;6.768;2023-05-24T02:37:15;101966.22;;;15.61;66.44
11987;BME280;6053;51.382;6.768;2023-05-24T02:39:44;101969.19;;;15.66;66.48
11987;BME280;6053;51.382;6.768;2023-05-24T02:42:16;101972.94;;;15.72;66.26
11987;BME280;6053;51.382;6.768;2023-05-24T02:44:48;101979.03;;;15.62;66.44
11987;BME280;6053;51.382;6.768;2023-05-24T02:47:19;101975.78;;;15.65;66.41
11987;BME280;6053;51.382;6.768;2023-05-24T02:49:49;101977.53;;;15.66;66.30
11987;BME280;6053;51.382;6.768;2023-05-24T02:52:19;101978.44;;;15.60;66.57
11987;BME280;6053;51.382;6.768;2023-05-24T02:54:49;101973.94;;;15.59;66.33
11987;BME280;6053;51.382;6.768;2023-05-24T02:57:26;101980.94;;;15.50;66.62
11987;BME280;6053;51.382;6.768;2023-05-24T02:59:57;101979.75;;;15.57;66.37
11987;BME280;6053;51.382;6.768;2023-05-24T03:02:26;101977.06;;;15.51;66.51
11987;BME280;6053;51.382;6.768;2023-05-24T03:04:56;101978.63;;;15.47;66.67
11987;BME280;6053;51.382;6.768;2023-05-24T03:07:26;101974.13;;;15.46;66.86
11987;BME280;6053;51.382;6.768;2023-05-24T03:09:58;101965.41;;;15.42;66.85
11987;BME280;6053;51.382;6.768;2023-05-24T03:12:27;101969.66;;;15.45;67.03
11987;BME280;6053;51.382;6.768;2023-05-24T03:14:59;101967.97;;;15.44;66.69
11987;BME280;6053;51.382;6.768;2023-05-24T03:17:29;101960.56;;;15.38;67.04
11987;BME280;6053;51.382;6.768;2023-05-24T03:20:00;101958.88;;;15.37;66.89
11987;BME280;6053;51.382;6.768;2023-05-24T03:22:32;101960.72;;;15.43;66.56
11987;BME280;6053;51.382;6.768;2023-05-24T03:25:00;101956.56;;;15.33;67.08
11987;BME280;6053;51.382;6.768;2023-05-24T03:27:30;101957.50;;;15.27;67.19
11987;BME280;6053;51.382;6.768;2023-05-24T03:30:01;101961.00;;;15.23;67.27
11987;BME280;6053;51.382;6.768;2023-05-24T03:32:30;101957.25;;;15.29;67.39
11987;BME280;6053;51.382;6.768;2023-05-24T03:34:59;101963.91;;;15.28;67.39
11987;BME280;6053;51.382;6.768;2023-05-24T03:37:29;101968.53;;;15.34;67.02
11987;BME280;6053;51.382;6.768;2023-05-24T03:39:59;101968.16;;;15.30;67.32
11987;BME280;6053;51.382;6.768;2023-05-24T03:42:30;101971.50;;;15.21;67.46
11987;BME280;6053;51.382;6.768;2023-05-24T03:45:01;101960.63;;;15.19;67.84
11987;BME280;6053;51.382;6.768;2023-05-24T03:47:30;101967.25;;;15.18;68.02
11987;BME280;6053;51.382;6.768;2023-05-24T03:50:01;101970.03;;;15.18;67.79
11987;BME280;6053;51.382;6.768;2023-05-24T03:52:30;101972.59;;;15.20;67.80
11987;BME280;6053;51.382;6.768;2023-05-24T03:54:59;101972.34;;;15.21;67.98
11987;BME280;6053;51.382;6.768;2023-05-24T03:57:28;101973.66;;;15.19;68.04
11987;BME280;6053;51.382;6.768;2023-05-24T03:59:57;101964.63;;;15.23;67.65
11987;BME280;6053;51.382;6.768;2023-05-24T04:02:28;101968.47;;;15.22;68.04
11987;BME280;6053;51.382;6.768;2023-05-24T04:04:57;101966.47;;;15.11;68.46
11987;BME280;6053;51.382;6.768;2023-05-24T04:07:28;101969.88;;;15.13;68.40
11987;BME280;6053;51.382;6.768;2023-05-24T04:10:01;101978.44;;;15.30;67.91
11987;BME280;6053;51.382;6.768;2023-05-24T04:12:30;101976.06;;;15.45;67.24
11987;BME280;6053;51.382;6.768;2023-05-24T04:15:01;101977.88;;;15.40;67.17
11987;BME280;6053;51.382;6.768;2023-05-24T04:17:32;101977.91;;;15.51;66.94
11987;BME280;6053;51.382;6.768;2023-05-24T04:20:02;101977.59;;;15.29;67.49
11987;BME280;6053;51.382;6.768;2023-05-24T04:22:32;101975.19;;;15.15;68.29
11987;BME280;6053;51.382;6.768;2023-05-24T04:25:02;101975.56;;;15.37;67.78
11987;BME280;6053;51.382;6.768;2023-05-24T04:27:32;101979.00;;;15.50;67.30
11987;BME280;6053;51.382;6.768;2023-05-24T04:30:03;101970.56;;;15.57;67.14
11987;BME280;6053;51.382;6.768;2023-05-24T04:32:34;101980.50;;;15.65;66.74
11987;BME280;6053;51.382;6.768;2023-05-24T04:35:04;101972.63;;;15.80;66.38
11987;BME280;6053;51.382;6.768;2023-05-24T04:37:34;101975.97;;;15.70;66.77
11987;BME280;6053;51.382;6.768;2023-05-24T04:40:05;101985.06;;;15.77;66.62
11987;BME280;6053;51.382;6.768;2023-05-24T04:42:34;101990.91;;;15.88;66.26
11987;BME280;6053;51.382;6.768;2023-05-24T04:45:06;101988.13;;;15.88;66.26
11987;BME280;6053;51.382;6.768;2023-05-24T04:47:37;101990.66;;;15.89;66.17
11987;BME280;6053;51.382;6.768;2023-05-24T04:50:10;101998.13;;;15.77;66.56
11987;BME280;6053;51.382;6.768;2023-05-24T04:52:39;101995.91;;;15.49;68.18
11987;BME280;6053;51.382;6.768;2023-05-24T04:55:08;102001.25;;;14.58;72.18
11987;BME280;6053;51.382;6.768;2023-05-24T04:57:37;102002.59;;;15.11;70.62
11987;BME280;6053;51.382;6.768;2023-05-24T05:00:08;102002.00;;;15.57;68.91
11987;BME280;6053;51.382;6.768;2023-05-24T05:02:39;102011.31;;;15.82;67.88
11987;BME280;6053;51.382;6.768;2023-05-24T05:05:08;102015.53;;;16.14;66.50
11987;BME280;6053;51.382;6.768;2023-05-24T05:07:38;102012.94;;;14.42;70.92
11987;BME280;6053;51.382;6.768;2023-05-24T05:10:10;102012.97;;;15.52;69.59
11987;BME280;6053;51.382;6.768;2023-05-24T05:12:39;102013.91;;;15.65;68.69
11987;BME280;6053;51.382;6.768;2023-05-24T05:15:09;102018.78;;;15.51;69.52
11987;BME280;6053;51.382;6.768;2023-05-24T05:17:42;102020.63;;;15.75;68.68
11987;BME280;6053;51.382;6.768;2023-05-24T05:20:11;102020.56;;;15.94;68.22
11987;BME280;6053;51.382;6.768;2023-05-24T05:22:45;102024.59;;;15.49;68.88
11987;BME280;6053;51.382;6.768;2023-05-24T05:25:19;102010.28;;;15.64;69.80
11987;BME280;6053;51.382;6.768;2023-05-24T05:27:49;102023.47;;;15.87;69.07
11987;BME280;6053;51.382;6.768;2023-05-24T05:30:28;102017.94;;;15.32;70.35
11987;BME280;6053;51.382;6.768;2023-05-24T05:32:58;102024.91;;;15.41;71.01
11987;BME280;6053;51.382;6.768;2023-05-24T05:35:32;102020.69;;;15.20;72.25
11987;BME280;6053;51.382;6.768;2023-05-24T05:38:02;102010.09;;;15.11;72.94
11987;BME280;6053;51.382;6.768;2023-05-24T05:40:32;102022.66;;;13.95;77.89
11987;BME280;6053;51.382;6.768;2023-05-24T05:43:01;102013.81;;;14.61;76.28
11987;BME280;6053;51.382;6.768;2023-05-24T05:45:30;102016.31;;;15.61;71.92
11987;BME280;6053;51.382;6.768;2023-05-24T05:48:01;102004.13;;;14.89;73.81
11987;BME280;6053;51.382;6.768;2023-05-24T05:50:31;102013.03;;;15.83;70.95
11987;BME280;6053;51.382;6.768;2023-05-24T05:53:00;102018.31;;;15.72;72.17
11987;BME280;6053;51.382;6.768;2023-05-24T05:55:28;102015.19;;;14.52;76.10
11987;BME280;6053;51.382;6.768;2023-05-24T05:57:58;102013.97;;;14.41;77.99
11987;BME280;6053;51.382;6.768;2023-05-24T06:00:29;102008.00;;;14.88;76.66
11987;BME280;6053;51.382;6.768;2023-05-24T06:03:02;102008.91;;;15.73;72.57
11987;BME280;6053;51.382;6.768;2023-05-24T06:05:31;102009.97;;;15.72;72.18
11987;BME280;6053;51.382;6.768;2023-05-24T06:08:00;102006.06;;;14.88;75.37
11987;BME280;6053;51.382;6.768;2023-05-24T06:10:29;102004.81;;;15.88;71.78
11987;BME280;6053;51.382;6.768;2023-05-24T06:13:01;102011.94;;;16.49;68.91
11987;BME280;6053;51.382;6.768;2023-05-24T06:15:31;102018.22;;;16.21;70.20
11987;BME280;6053;51.382;6.768;2023-05-24T06:18:04;102031.44;;;15.65;72.79
11987;BME280;6053;51.382;6.768;2023-05-24T06:20:33;102039.03;;;16.18;70.39
11987;BME280;6053;51.382;6.768;2023-05-24T06:23:03;102032.09;;;14.50;78.53
11987;BME280;6053;51.382;6.768;2023-05-24T06:25:33;102034.84;;;14.25;79.65
11987;BME280;6053;51.382;6.768;2023-05-24T06:28:05;102043.03;;;14.89;76.71
11987;BME280;6053;51.382;6.768;2023-05-24T06:30:35;102028.47;;;15.12;75.31
11987;BME280;6053;51.382;6.768;2023-05-24T06:33:06;102027.78;;;15.35;75.00
11987;BME280;6053;51.382;6.768;2023-05-24T06:35:36;102034.63;;;15.50;71.40
11987;BME280;6053;51.382;6.768;2023-05-24T06:38:05;102027.94;;;16.30;70.41
11987;BME280;6053;51.382;6.768;2023-05-24T06:40:35;102022.88;;;15.48;74.13
11987;BME280;6053;51.382;6.768;2023-05-24T06:43:04;102023.22;;;16.31;70.96
11987;BME280;6053;51.382;6.768;2023-05-24T06:45:34;102027.94;;;16.42;70.15
11987;BME280;6053;51.382;6.768;2023-05-24T06:48:04;102028.25;;;16.22;71.36
11987;BME280;6053;51.382;6.768;2023-05-24T06:50:36;102035.69;;;13.94;81.51
11987;BME280;6053;51.382;6.768;2023-05-24T06:53:08;102031.09;;;15.43;74.86
11987;BME280;6053;51.382;6.768;2023-05-24T06:55:38;102033.06;;;14.63;78.68
11987;BME280;6053;51.382;6.768;2023-05-24T06:58:07;102035.56;;;13.82;80.69
11987;BME280;6053;51.382;6.768;2023-05-24T07:00:40;102029.06;;;15.32;76.33
11987;BME280;6053;51.382;6.768;2023-05-24T07:03:11;102030.94;;;15.20;76.81
11987;BME280;6053;51.382;6.768;2023-05-24T07:05:43;102028.75;;;14.85;78.84
11987;BME280;6053;51.382;6.768;2023-05-24T07:08:12;102030.88;;;14.90;78.41
11987;BME280;6053;51.382;6.768;2023-05-24T07:10:41;102042.78;;;14.15;82.75
11987;BME280;6053;51.382;6.768;2023-05-24T07:13:11;102038.88;;;13.98;84.35
11987;BME280;6053;51.382;6.768;2023-05-24T07:15:41;102036.69;;;14.63;81.53
11987;BME280;6053;51.382;6.768;2023-05-24T07:18:10;102040.66;;;15.29;77.52
11987;BME280;6053;51.382;6.768;2023-05-24T07:20:39;102042.97;;;14.20;80.98
11987;BME280;6053;51.382;6.768;2023-05-24T07:23:10;102044.25;;;13.48;85.71
11987;BME280;6053;51.382;6.768;2023-05-24T07:25:40;102047.88;;;13.55;84.73
11987;BME280;6053;51.382;6.768;2023-05-24T07:28:09;102042.03;;;13.11;89.45
11987;BME280;6053;51.382;6.768;2023-05-24T07:30:40;102046.28;;;14.04;86.06
11987;BME280;6053;51.382;6.768;2023-05-24T07:33:09;102040.50;;;13.22;86.89
11987;BME280;6053;51.382;6.768;2023-05-24T07:35:40;102051.16;;;13.32;86.39
11987;BME280;6053;51.382;6.768;2023-05-24T07:38:11;102044.13;;;13.29;85.43
11987;BME280;6053;51.382;6.768;2023-05-24T07:40:40;102046.81;;;13.87;85.19
11987;BME280;6053;51.382;6.768;2023-05-24T07:43:09;102045.66;;;13.05;88.99
11987;BME280;6053;51.382;6.768;2023-05-24T07:45:41;102044.06;;;13.87;84.84
11987;BME280;6053;51.382;6.768;2023-05-24T07:48:10;102040.22;;;14.20;83.40
11987;BME280;6053;51.382;6.768;2023-05-24T07:50:38;102041.03;;;13.96;82.13
11987;BME280;6053;51.382;6.768;2023-05-24T07:53:07;102035.75;;;14.44;80.46
11987;BME280;6053;51.382;6.768;2023-05-24T07:55:37;102031.19;;;13.61;83.62
11987;BME280;6053;51.382;6.768;2023-05-24T07:58:06;102029.13;;;13.43;84.91
11987;BME280;6053;51.382;6.768;2023-05-24T08:00:35;102036.22;;;15.09;79.42
11987;BME280;6053;51.382;6.768;2023-05-24T08:03:04;102031.84;;;14.95;78.87
11987;BME280;6053;51.382;6.768;2023-05-24T08:05:34;102036.38;;;16.77;71.87
11987;BME280;6053;51.382;6.768;2023-05-24T08:08:02;102036.47;;;15.56;71.93
11987;BME280;6053;51.382;6.768;2023-05-24T08:10:31;102038.13;;;13.77;84.71
11987;BME280;6053;51.382;6.768;2023-05-24T08:13:01;102044.31;;;14.11;80.52
11987;BME280;6053;51.382;6.768;2023-05-24T08:15:30;102039.84;;;13.20;85.09
11987;BME280;6053;51.382;6.768;2023-05-24T08:17:59;102043.06;;;13.17;85.65
11987;BME280;6053;51.382;6.768;2023-05-24T08:20:27;102033.28;;;14.04;84.66
11987;BME280;6053;51.382;6.768;2023-05-24T08:22:56;102028.66;;;15.65;76.91
11987;BME280;6053;51.382;6.768;2023-05-24T08:25:25;102032.28;;;14.24;76.45
11987;BME280;6053;51.382;6.768;2023-05-24T08:27:54;102032.88;;;15.38;75.33
11987;BME280;6053;51.382;6.768;2023-05-24T08:30:24;102042.56;;;14.73;79.71
11987;BME280;6053;51.382;6.768;2023-05-24T08:32:53;102037.19;;;15.15;77.22
11987;BME280;6053;51.382;6.768;2023-05-24T08:35:22;102036.53;;;14.26;79.54
11987;BME280;6053;51.382;6.768;2023-05-24T08:37:50;102042.09;;;14.76;78.75
11987;BME280;6053;51.382;6.768;2023-05-24T08:40:19;102039.91;;;15.40;75.07
11987;BME280;6053;51.382;6.768;2023-05-24T08:42:52;102035.94;;;13.93;77.96
11987;BME280;6053;51.382;6.768;2023-05-24T08:45:21;102042.38;;;13.41;78.05
11987;BME280;6053;51.382;6.768;2023-05-24T08:47:51;102034.75;;;14.38;77.15
11987;BME280;6053;51.382;6.768;2023-05-24T08:50:20;102027.97;;;13.64;78.52
11987;BME280;6053;51.382;6.768;2023-05-24T08:52:50;102024.03;;;14.42;75.27
11987;BME280;6053;51.382;6.768;2023-05-24T08:55:21;102023.56;;;13.50;79.23
11987;BME280;6053;51.382;6.768;2023-05-24T08:57:50;102020.78;;;14.45;76.83
11987;BME280;6053;51.382;6.768;2023-05-24T09:00:19;102017.59;;;15.10;76.06
11987;BME280;6053;51.382;6.768;2023-05-24T09:02:48;102029.16;;;14.89;72.12
11987;BME280;6053;51.382;6.768;2023-05-24T09:05:19;102021.88;;;15.79;73.39
11987;BME280;6053;51.382;6.768;2023-05-24T09:07:49;102015.47;;;15.91;71.17
11987;BME280;6053;51.382;6.768;2023-05-24T09:10:19;102017.88;;;15.02;74.05
11987;BME280;6053;51.382;6.768;2023-05-24T09:12:56;102017.56;;;14.23;73.94
11987;BME280;6053;51.382;6.768;2023-05-24T09:15:26;102016.72;;;14.91;71.95
11987;BME280;6053;51.382;6.768;2023-05-24T09:17:55;102016.59;;;17.83;63.42
11987;BME280;6053;51.382;6.768;2023-05-24T09:20:25;102014.00;;;15.76;65.12
11987;BME280;6053;51.382;6.768;2023-05-24T09:22:55;102020.59;;;16.83;63.17
11987;BME280;6053;51.382;6.768;2023-05-24T09:25:25;102008.00;;;17.73;61.16
11987;BME280;6053;51.382;6.768;2023-05-24T09:27:55;102012.47;;;14.89;64.89
11987;BME280;6053;51.382;6.768;2023-05-24T09:30:23;102015.88;;;14.91;69.06
11987;BME280;6053;51.382;6.768;2023-05-24T09:32:56;102009.97;;;15.72;68.84
11987;BME280;6053;51.382;6.768;2023-05-24T09:35:27;102014.03;;;15.40;67.58
11987;BME280;6053;51.382;6.768;2023-05-24T09:37:57;102008.50;;;15.51;67.10
11987;BME280;6053;51.382;6.768;2023-05-24T09:40:27;102019.91;;;14.51;70.86
11987;BME280;6053;51.382;6.768;2023-05-24T09:43:04;102010.78;;;14.88;67.89
11987;BME280;6053;51.382;6.768;2023-05-24T09:45:40;102010.25;;;16.60;66.76
11987;BME280;6053;51.382;6.768;2023-05-24T09:48:10;102014.16;;;16.47;62.47
11987;BME280;6053;51.382;6.768;2023-05-24T09:50:41;102004.13;;;17.45;57.14
11987;BME280;6053;51.382;6.768;2023-05-24T09:53:12;102004.41;;;18.34;58.93
11987;BME280;6053;51.382;6.768;2023-05-24T09:55:43;102004.44;;;17.89;59.83
11987;BME280;6053;51.382;6.768;2023-05-24T09:58:12;102000.31;;;16.17;63.48
11987;BME280;6053;51.382;6.768;2023-05-24T10:00:42;101989.66;;;16.49;66.35
11987;BME280;6053;51.382;6.768;2023-05-24T10:03:11;101993.41;;;15.59;62.57
11987;BME280;6053;51.382;6.768;2023-05-24T10:05:44;101997.78;;;16.39;61.17
11987;BME280;6053;51.382;6.768;2023-05-24T10:08:13;101994.13;;;16.15;65.77
11987;BME280;6053;51.382;6.768;2023-05-24T10:10:45;101994.47;;;16.18;65.82
11987;BME280;6053;51.382;6.768;2023-05-24T10:13:15;101992.06;;;16.10;67.44
11987;BME280;6053;51.382;6.768;2023-05-24T10:15:44;102000.84;;;15.17;62.82
11987;BME280;6053;51.382;6.768;2023-05-24T10:18:13;102005.47;;;16.01;61.98
11987;BME280;6053;51.382;6.768;2023-05-24T10:20:43;102004.63;;;15.04;60.95
11987;BME280;6053;51.382;6.768;2023-05-24T10:23:19;101999.59;;;16.45;66.04
11987;BME280;6053;51.382;6.768;2023-05-24T10:25:51;102001.13;;;14.72;61.63
11987;BME280;6053;51.382;6.768;2023-05-24T10:28:23;101995.56;;;15.08;61.42
11987;BME280;6053;51.382;6.768;2023-05-24T10:31:00;101996.03;;;14.44;65.31
11987;BME280;6053;51.382;6.768;2023-05-24T10:33:29;101993.97;;;15.19;67.73
11987;BME280;6053;51.382;6.768;2023-05-24T10:36:02;102001.91;;;15.64;61.82
11987;BME280;6053;51.382;6.768;2023-05-24T10:38:37;101998.69;;;15.97;59.41
11987;BME280;6053;51.382;6.768;2023-05-24T10:41:07;101993.56;;;16.48;58.37
11987;BME280;6053;51.382;6.768;2023-05-24T10:43:36;101990.50;;;17.08;55.01
11987;BME280;6053;51.382;6.768;2023-05-24T10:46:08;101988.72;;;18.33;56.18
11987;BME280;6053;51.382;6.768;2023-05-24T10:48:38;101990.91;;;17.40;54.40
11987;BME280;6053;51.382;6.768;2023-05-24T10:51:31;101984.72;;;16.86;58.13
11987;BME280;6053;51.382;6.768;2023-05-24T10:54:19;101993.56;;;16.48;56.33
11987;BME280;6053;51.382;6.768;2023-05-24T10:56:53;101991.16;;;15.86;58.95
11987;BME280;6053;51.382;6.768;2023-05-24T10:59:28;101979.41;;;15.84;59.82
11987;BME280;6053;51.382;6.768;2023-05-24T11:01:58;101982.88;;;14.82;64.81
11987;BME280;6053;51.382;6.768;2023-05-24T11:04:32;101989.53;;;14.75;64.36
11987;BME280;6053;51.382;6.768;2023-05-24T11:07:06;101987.16;;;14.78;65.88
11987;BME280;6053;51.382;6.768;2023-05-24T11:09:36;101983.38;;;15.58;68.57
11987;BME280;6053;51.382;6.768;2023-05-24T11:12:07;101989.56;;;15.60;65.20
11987;BME280;6053;51.382;6.768;2023-05-24T11:14:37;101986.56;;;15.13;66.00
11987;BME280;6053;51.382;6.768;2023-05-24T11:17:07;101991.56;;;15.23;66.61
11987;BME280;6053;51.382;6.768;2023-05-24T11:19:37;101988.03;;;15.16;69.31
11987;BME280;6053;51.382;6.768;2023-05-24T11:22:08;101987.72;;;15.54;68.33
11987;BME280;6053;51.382;6.768;2023-05-24T11:24:36;101991.94;;;15.75;64.77
11987;BME280;6053;51.382;6.768;2023-05-24T11:27:05;101993.13;;;15.00;69.23
11987;BME280;6053;51.382;6.768;2023-05-24T11:29:40;102001.13;;;14.22;68.19
11987;BME280;6053;51.382;6.768;2023-05-24T11:32:10;101983.97;;;14.56;71.48
11987;BME280;6053;51.382;6.768;2023-05-24T11:34:42;101995.13;;;14.93;66.87
11987;BME280;6053;51.382;6.768;2023-05-24T11:37:13;101991.34;;;14.19;66.51
11987;BME280;6053;51.382;6.768;2023-05-24T11:39:49;101986.69;;;14.81;69.04
11987;BME280;6053;51.382;6.768;2023-05-24T11:42:21;101983.75;;;14.58;67.56
11987;BME280;6053;51.382;6.768;2023-05-24T11:44:51;101992.03;;;15.20;64.82
11987;BME280;6053;51.382;6.768;2023-05-24T11:47:20;101980.38;;;15.29;67.19
11987;BME280;6053;51.382;6.768;2023-05-24T11:49:50;101988.06;;;15.76;65.53
11987;BME280;6053;51.382;6.768;2023-05-24T11:52:20;101985.94;;;15.60;65.26
11987;BME280;6053;51.382;6.768;2023-05-24T11:54:49;101989.31;;;15.62;64.90
11987;BME280;6053;51.382;6.768;2023-05-24T11:57:25;101980.13;;;15.31;64.17
11987;BME280;6053;51.382;6.768;2023-05-24T11:59:54;101983.59;;;16.17;63.37
11987;BME280;6053;51.382;6.768;2023-05-24T12:02:24;101987.97;;;16.71;61.31
11987;BME280;6053;51.382;6.768;2023-05-24T12:04:53;101987.25;;;17.40;59.25
11987;BME280;6053;51.382;6.768;2023-05-24T12:07:24;101987.69;;;17.20;59.17
11987;BME280;6053;51.382;6.768;2023-05-24T12:09:52;101982.41;;;16.95;59.14
11987;BME280;6053;51.382;6.768;2023-05-24T12:12:21;101979.59;;;16.24;60.73
11987;BME280;6053;51.382;6.768;2023-05-24T12:15:00;101982.69;;;15.32;63.41
11987;BME280;6053;51.382;6.768;2023-05-24T12:17:28;101979.34;;;16.14;61.04
11987;BME280;6053;51.382;6.768;2023-05-24T12:19:57;101988.81;;;16.13;61.83
11987;BME280;6053;51.382;6.768;2023-05-24T12:22:29;101986.44;;;15.87;60.84
11987;BME280;6053;51.382;6.768;2023-05-24T12:24:58;101980.16;;;15.91;61.46
11987;BME280;6053;51.382;6.768;2023-05-24T12:27:27;101993.91;;;16.52;59.45
11987;BME280;6053;51.382;6.768;2023-05-24T12:29:57;101984.81;;;16.56;60.72
11987;BME280;6053;51.382;6.768;2023-05-24T12:32:33;101988.72;;;16.90;61.28
11987;BME280;6053;51.382;6.768;2023-05-24T12:35:03;101985.66;;;16.10;59.53
11987;BME280;6053;51.382;6.768;2023-05-24T12:37:33;101970.63;;;16.11;62.43
11987;BME280;6053;51.382;6.768;2023-05-24T12:40:02;101971.75;;;16.45;60.40
11987;BME280;6053;51.382;6.768;2023-05-24T12:42:43;101973.53;;;16.16;61.25
11987;BME280;6053;51.382;6.768;2023-05-24T12:45:12;101979.06;;;17.62;59.63
11987;BME280;6053;51.382;6.768;2023-05-24T12:47:42;101964.22;;;16.10;62.13
11987;BME280;6053;51.382;6.768;2023-05-24T12:50:10;101971.09;;;17.13;60.74
11987;BME280;6053;51.382;6.768;2023-05-24T12:52:40;101974.19;;;17.00;60.05
11987;BME280;6053;51.382;6.768;2023-05-24T12:55:10;101967.13;;;16.62;60.09
11987;BME280;6053;51.382;6.768;2023-05-24T12:57:38;101967.53;;;16.54;61.52
11987;BME280;6053;51.382;6.768;2023-05-24T13:00:09;101955.75;;;16.29;60.65
11987;BME280;6053;51.382;6.768;2023-05-24T13:02:38;101970.59;;;15.99;61.62
11987;BME280;6053;51.382;6.768;2023-05-24T13:05:08;101964.34;;;16.39;61.65
11987;BME280;6053;51.382;6.768;2023-05-24T13:07:37;101965.56;;;16.90;60.93
11987;BME280;6053;51.382;6.768;2023-05-24T13:10:08;101974.66;;;16.26;61.64
11987;BME280;6053;51.382;6.768;2023-05-24T13:12:36;101967.88;;;16.46;61.28
11987;BME280;6053;51.382;6.768;2023-05-24T13:15:06;101968.97;;;16.33;61.45
11987;BME280;6053;51.382;6.768;2023-05-24T13:17:35;101969.59;;;17.92;60.61
11987;BME280;6053;51.382;6.768;2023-05-24T13:20:05;101967.31;;;18.39;57.71